sensor_id;sensor_type;location;lat;lon;timestamp;P1;durP1;ratioP1;P2;durP2;ratioP2
9716;SDS011;4897;43.570;27.832;2022-11-21T00:01:51;4.38;;;1.83;;
9716;SDS011;4897;43.570;27.832;2022-11-21T00:04:18;5.43;;;1.85;;
9716;SDS011;4897;43.570;27.832;2022-11-21T00:06:45;2.83;;;1.88;;
9716;SDS011;4897;43.570;27.832;2022-11-21T00:09:12;2.67;;;2.08;;
9716;SDS011;4897;43.570;27.832;2022-11-21T00:18:27;3.40;;;2.30;;
9716;SDS011;4897;43.570;27.832;2022-11-21T00:20:54;3.40;;;2.28;;
9716;SDS011;4897;43.570;27.832;2022-11-21T00:23:21;4.63;;;2.47;;
9716;SDS011;4897;43.570;27.832;2022-11-21T00:25:50;5.28;;;2.70;;
9716;SDS011;4897;43.570;27.832;2022-11-21T00:28:17;4.22;;;2.80;;
9716;SDS011;4897;43.570;27.832;2022-11-21T00:30:43;4.35;;;2.97;;
9716;SDS011;4897;43.570;27.832;2022-11-21T00:33:10;8.20;;;2.67;;
9716;SDS011;4897;43.570;27.832;2022-11-21T00:35:38;5.20;;;2.63;;
9716;SDS011;4897;43.570;27.832;2022-11-21T00:38:05;7.88;;;2.72;;
9716;SDS011;4897;43.570;27.832;2022-11-21T00:40:32;3.58;;;2.70;;
9716;SDS011;4897;43.570;27.832;2022-11-21T00:42:59;7.47;;;3.10;;
9716;SDS011;4897;43.570;27.832;2022-11-21T00:45:26;5.82;;;3.08;;
9716;SDS011;4897;43.570;27.832;2022-11-21T00:47:53;9.07;;;3.42;;
9716;SDS011;4897;43.570;27.832;2022-11-21T00:50:19;9.25;;;3.45;;
9716;SDS011;4897;43.570;27.832;2022-11-21T00:52:48;7.15;;;3.22;;
9716;SDS011;4897;43.570;27.832;2022-11-21T00:55:15;5.90;;;3.35;;
9716;SDS011;4897;43.570;27.832;2022-11-21T00:57:41;6.28;;;3.50;;
9716;SDS011;4897;43.570;27.832;2022-11-21T01:00:09;7.68;;;3.63;;
9716;SDS011;4897;43.570;27.832;2022-11-21T01:02:36;7.07;;;3.33;;
9716;SDS011;4897;43.570;27.832;2022-11-21T01:05:03;9.93;;;3.92;;
9716;SDS011;4897;43.570;27.832;2022-11-21T01:07:31;5.57;;;3.45;;
9716;SDS011;4897;43.570;27.832;2022-11-21T01:10:01;8.00;;;3.50;;
9716;SDS011;4897;43.570;27.832;2022-11-21T01:12:28;7.03;;;3.88;;
9716;SDS011;4897;43.570;27.832;2022-11-21T01:14:56;7.07;;;3.85;;
9716;SDS011;4897;43.570;27.832;2022-11-21T01:17:23;6.47;;;3.55;;
9716;SDS011;4897;43.570;27.832;2022-11-21T01:19:50;7.88;;;4.07;;
9716;SDS011;4897;43.570;27.832;2022-11-21T01:22:17;5.57;;;3.55;;
9716;SDS011;4897;43.570;27.832;2022-11-21T01:24:44;6.35;;;3.75;;
9716;SDS011;4897;43.570;27.832;2022-11-21T01:27:13;8.90;;;4.18;;
9716;SDS011;4897;43.570;27.832;2022-11-21T01:29:40;5.20;;;3.53;;
9716;SDS011;4897;43.570;27.832;2022-11-21T01:32:07;5.93;;;3.80;;
9716;SDS011;4897;43.570;27.832;2022-11-21T01:34:33;6.50;;;4.10;;
9716;SDS011;4897;43.570;27.832;2022-11-21T01:37:00;7.05;;;3.60;;
9716;SDS011;4897;43.570;27.832;2022-11-21T01:39:27;8.27;;;4.20;;
9716;SDS011;4897;43.570;27.832;2022-11-21T01:41:54;7.88;;;3.90;;
9716;SDS011;4897;43.570;27.832;2022-11-21T01:44:23;12.45;;;4.40;;
9716;SDS011;4897;43.570;27.832;2022-11-21T01:46:51;7.38;;;4.00;;
9716;SDS011;4897;43.570;27.832;2022-11-21T01:49:19;11.38;;;4.93;;
9716;SDS011;4897;43.570;27.832;2022-11-21T01:51:51;10.50;;;5.13;;
9716;SDS011;4897;43.570;27.832;2022-11-21T01:54:23;9.55;;;5.10;;
9716;SDS011;4897;43.570;27.832;2022-11-21T01:56:57;6.85;;;4.65;;
9716;SDS011;4897;43.570;27.832;2022-11-21T01:59:29;8.32;;;5.28;;
9716;SDS011;4897;43.570;27.832;2022-11-21T02:02:01;13.10;;;5.60;;
9716;SDS011;4897;43.570;27.832;2022-11-21T02:04:31;8.40;;;5.30;;
9716;SDS011;4897;43.570;27.832;2022-11-21T02:07:01;11.98;;;5.78;;
9716;SDS011;4897;43.570;27.832;2022-11-21T02:09:31;10.40;;;5.70;;
9716;SDS011;4897;43.570;27.832;2022-11-21T02:12:01;15.05;;;5.93;;
9716;SDS011;4897;43.570;27.832;2022-11-21T02:14:34;9.65;;;5.60;;
9716;SDS011;4897;43.570;27.832;2022-11-21T02:17:04;12.45;;;5.45;;
9716;SDS011;4897;43.570;27.832;2022-11-21T02:19:34;10.70;;;5.55;;
9716;SDS011;4897;43.570;27.832;2022-11-21T02:22:10;13.30;;;5.47;;
9716;SDS011;4897;43.570;27.832;2022-11-21T02:24:45;12.45;;;5.63;;
9716;SDS011;4897;43.570;27.832;2022-11-21T02:27:16;17.23;;;6.00;;
9716;SDS011;4897;43.570;27.832;2022-11-21T02:29:44;16.15;;;5.95;;
9716;SDS011;4897;43.570;27.832;2022-11-21T02:32:19;12.80;;;6.78;;
9716;SDS011;4897;43.570;27.832;2022-11-21T02:34:47;14.65;;;6.47;;
9716;SDS011;4897;43.570;27.832;2022-11-21T02:37:13;15.45;;;6.78;;
9716;SDS011;4897;43.570;27.832;2022-11-21T02:39:41;14.38;;;6.45;;
9716;SDS011;4897;43.570;27.832;2022-11-21T02:42:11;13.45;;;6.05;;
9716;SDS011;4897;43.570;27.832;2022-11-21T02:44:45;16.13;;;6.63;;
9716;SDS011;4897;43.570;27.832;2022-11-21T02:47:16;15.95;;;6.40;;
9716;SDS011;4897;43.570;27.832;2022-11-21T02:49:45;17.27;;;6.03;;
9716;SDS011;4897;43.570;27.832;2022-11-21T02:52:19;17.05;;;6.10;;
9716;SDS011;4897;43.570;27.832;2022-11-21T02:54:46;13.43;;;5.97;;
9716;SDS011;4897;43.570;27.832;2022-11-21T02:57:13;13.35;;;6.18;;
9716;SDS011;4897;43.570;27.832;2022-11-21T02:59:39;14.13;;;5.72;;
9716;SDS011;4897;43.570;27.832;2022-11-21T03:02:08;14.82;;;6.25;;
9716;SDS011;4897;43.570;27.832;2022-11-21T03:04:35;21.90;;;5.72;;
9716;SDS011;4897;43.570;27.832;2022-11-21T03:07:01;24.08;;;5.78;;
9716;SDS011;4897;43.570;27.832;2022-11-21T03:09:28;16.77;;;5.25;;
9716;SDS011;4897;43.570;27.832;2022-11-21T03:11:55;17.40;;;5.68;;
9716;SDS011;4897;43.570;27.832;2022-11-21T03:14:22;16.80;;;5.43;;
9716;SDS011;4897;43.570;27.832;2022-11-21T03:16:49;13.68;;;4.93;;
9716;SDS011;4897;43.570;27.832;2022-11-21T03:19:17;19.42;;;5.60;;
9716;SDS011;4897;43.570;27.832;2022-11-21T03:21:44;19.90;;;5.55;;
9716;SDS011;4897;43.570;27.832;2022-11-21T03:24:11;15.85;;;5.75;;
9716;SDS011;4897;43.570;27.832;2022-11-21T03:26:38;25.85;;;5.53;;
9716;SDS011;4897;43.570;27.832;2022-11-21T03:29:05;20.08;;;5.20;;
9716;SDS011;4897;43.570;27.832;2022-11-21T03:31:32;24.02;;;4.88;;
9716;SDS011;4897;43.570;27.832;2022-11-21T03:33:59;21.27;;;5.35;;
9716;SDS011;4897;43.570;27.832;2022-11-21T03:36:28;21.48;;;5.22;;
9716;SDS011;4897;43.570;27.832;2022-11-21T03:38:55;19.23;;;5.20;;
9716;SDS011;4897;43.570;27.832;2022-11-21T03:41:22;18.77;;;5.30;;
9716;SDS011;4897;43.570;27.832;2022-11-21T03:43:55;23.08;;;5.30;;
9716;SDS011;4897;43.570;27.832;2022-11-21T03:46:22;19.98;;;5.05;;
9716;SDS011;4897;43.570;27.832;2022-11-21T03:48:49;13.93;;;4.95;;
9716;SDS011;4897;43.570;27.832;2022-11-21T03:51:16;30.20;;;5.85;;
9716;SDS011;4897;43.570;27.832;2022-11-21T03:53:46;16.65;;;5.38;;
9716;SDS011;4897;43.570;27.832;2022-11-21T03:56:13;15.43;;;4.53;;
9716;SDS011;4897;43.570;27.832;2022-11-21T03:58:41;26.13;;;5.50;;
9716;SDS011;4897;43.570;27.832;2022-11-21T04:01:08;18.30;;;4.75;;
9716;SDS011;4897;43.570;27.832;2022-11-21T04:03:37;20.13;;;4.90;;
9716;SDS011;4897;43.570;27.832;2022-11-21T04:06:04;18.48;;;5.22;;
9716;SDS011;4897;43.570;27.832;2022-11-21T04:08:31;22.15;;;4.70;;
9716;SDS011;4897;43.570;27.832;2022-11-21T04:11:00;18.25;;;4.43;;
9716;SDS011;4897;43.570;27.832;2022-11-21T04:13:27;18.77;;;5.15;;
9716;SDS011;4897;43.570;27.832;2022-11-21T04:15:54;20.70;;;4.85;;
9716;SDS011;4897;43.570;27.832;2022-11-21T04:18:21;25.75;;;5.35;;
9716;SDS011;4897;43.570;27.832;2022-11-21T04:20:48;21.88;;;4.63;;
9716;SDS011;4897;43.570;27.832;2022-11-21T04:23:20;26.77;;;5.15;;
9716;SDS011;4897;43.570;27.832;2022-11-21T04:25:47;23.20;;;5.80;;
9716;SDS011;4897;43.570;27.832;2022-11-21T04:28:15;24.45;;;5.38;;
9716;SDS011;4897;43.570;27.832;2022-11-21T04:30:42;30.92;;;5.40;;
9716;SDS011;4897;43.570;27.832;2022-11-21T04:33:09;25.27;;;5.40;;
9716;SDS011;4897;43.570;27.832;2022-11-21T04:35:37;19.30;;;4.85;;
9716;SDS011;4897;43.570;27.832;2022-11-21T04:38:04;16.85;;;4.45;;
9716;SDS011;4897;43.570;27.832;2022-11-21T04:40:31;20.70;;;4.97;;
9716;SDS011;4897;43.570;27.832;2022-11-21T04:42:58;17.15;;;5.05;;
9716;SDS011;4897;43.570;27.832;2022-11-21T04:45:27;25.95;;;4.70;;
9716;SDS011;4897;43.570;27.832;2022-11-21T04:47:54;18.75;;;4.68;;
9716;SDS011;4897;43.570;27.832;2022-11-21T04:50:21;22.70;;;4.72;;
9716;SDS011;4897;43.570;27.832;2022-11-21T04:52:48;14.93;;;4.53;;
9716;SDS011;4897;43.570;27.832;2022-11-21T04:55:16;33.63;;;5.03;;
9716;SDS011;4897;43.570;27.832;2022-11-21T04:57:44;23.42;;;4.65;;
9716;SDS011;4897;43.570;27.832;2022-11-21T05:00:11;27.90;;;4.65;;
9716;SDS011;4897;43.570;27.832;2022-11-21T05:02:40;26.58;;;5.10;;
9716;SDS011;4897;43.570;27.832;2022-11-21T05:05:07;23.40;;;5.00;;
9716;SDS011;4897;43.570;27.832;2022-11-21T05:07:35;33.25;;;5.75;;
9716;SDS011;4897;43.570;27.832;2022-11-21T05:10:02;19.83;;;5.00;;
9716;SDS011;4897;43.570;27.832;2022-11-21T05:12:30;23.00;;;4.60;;
9716;SDS011;4897;43.570;27.832;2022-11-21T05:15:14;17.67;;;4.35;;
9716;SDS011;4897;43.570;27.832;2022-11-21T05:17:43;33.33;;;4.90;;
9716;SDS011;4897;43.570;27.832;2022-11-21T05:20:10;31.67;;;6.03;;
9716;SDS011;4897;43.570;27.832;2022-11-21T05:22:37;18.30;;;4.60;;
9716;SDS011;4897;43.570;27.832;2022-11-21T05:25:04;25.75;;;5.15;;
9716;SDS011;4897;43.570;27.832;2022-11-21T05:27:31;26.23;;;5.35;;
9716;SDS011;4897;43.570;27.832;2022-11-21T05:29:58;20.33;;;4.70;;
9716;SDS011;4897;43.570;27.832;2022-11-21T05:32:25;37.33;;;5.03;;
9716;SDS011;4897;43.570;27.832;2022-11-21T05:34:53;34.42;;;5.10;;
9716;SDS011;4897;43.570;27.832;2022-11-21T05:37:20;15.43;;;4.97;;
9716;SDS011;4897;43.570;27.832;2022-11-21T05:39:47;20.38;;;5.40;;
9716;SDS011;4897;43.570;27.832;2022-11-21T05:42:14;26.30;;;5.63;;
9716;SDS011;4897;43.570;27.832;2022-11-21T05:45:01;24.45;;;5.05;;
9716;SDS011;4897;43.570;27.832;2022-11-21T05:47:27;33.60;;;5.53;;
9716;SDS011;4897;43.570;27.832;2022-11-21T05:49:55;27.27;;;5.47;;
9716;SDS011;4897;43.570;27.832;2022-11-21T05:52:22;24.08;;;4.75;;
9716;SDS011;4897;43.570;27.832;2022-11-21T05:54:50;26.02;;;5.20;;
9716;SDS011;4897;43.570;27.832;2022-11-21T05:57:17;21.23;;;5.47;;
9716;SDS011;4897;43.570;27.832;2022-11-21T05:59:44;32.15;;;4.95;;
9716;SDS011;4897;43.570;27.832;2022-11-21T06:02:11;20.60;;;4.25;;
9716;SDS011;4897;43.570;27.832;2022-11-21T06:04:57;17.73;;;5.78;;
9716;SDS011;4897;43.570;27.832;2022-11-21T06:07:24;25.35;;;4.78;;
9716;SDS011;4897;43.570;27.832;2022-11-21T06:09:50;16.13;;;4.63;;
9716;SDS011;4897;43.570;27.832;2022-11-21T06:12:17;30.33;;;4.68;;
9716;SDS011;4897;43.570;27.832;2022-11-21T06:14:44;26.73;;;4.97;;
9716;SDS011;4897;43.570;27.832;2022-11-21T06:17:11;19.23;;;4.82;;
9716;SDS011;4897;43.570;27.832;2022-11-21T06:19:38;33.13;;;4.82;;
9716;SDS011;4897;43.570;27.832;2022-11-21T06:22:07;21.35;;;5.03;;
9716;SDS011;4897;43.570;27.832;2022-11-21T06:24:33;23.95;;;4.57;;
9716;SDS011;4897;43.570;27.832;2022-11-21T06:27:00;18.00;;;4.35;;
9716;SDS011;4897;43.570;27.832;2022-11-21T06:29:27;22.25;;;4.75;;
9716;SDS011;4897;43.570;27.832;2022-11-21T06:31:54;26.70;;;5.40;;
9716;SDS011;4897;43.570;27.832;2022-11-21T06:34:21;19.73;;;5.18;;
9716;SDS011;4897;43.570;27.832;2022-11-21T06:36:48;22.98;;;6.63;;
9716;SDS011;4897;43.570;27.832;2022-11-21T06:39:16;28.27;;;7.18;;
9716;SDS011;4897;43.570;27.832;2022-11-21T06:41:44;20.05;;;5.50;;
9716;SDS011;4897;43.570;27.832;2022-11-21T06:44:15;24.70;;;5.28;;
9716;SDS011;4897;43.570;27.832;2022-11-21T06:46:42;21.45;;;4.72;;
9716;SDS011;4897;43.570;27.832;2022-11-21T06:49:09;25.00;;;4.70;;
9716;SDS011;4897;43.570;27.832;2022-11-21T06:51:36;20.27;;;3.47;;
9716;SDS011;4897;43.570;27.832;2022-11-21T06:54:03;19.40;;;3.10;;
9716;SDS011;4897;43.570;27.832;2022-11-21T06:56:31;16.60;;;3.88;;
9716;SDS011;4897;43.570;27.832;2022-11-21T06:58:58;15.77;;;3.60;;
9716;SDS011;4897;43.570;27.832;2022-11-21T07:01:25;19.08;;;3.72;;
9716;SDS011;4897;43.570;27.832;2022-11-21T07:03:52;14.23;;;3.63;;
9716;SDS011;4897;43.570;27.832;2022-11-21T07:06:19;18.38;;;3.80;;
9716;SDS011;4897;43.570;27.832;2022-11-21T07:08:46;21.02;;;3.63;;
9716;SDS011;4897;43.570;27.832;2022-11-21T07:11:13;15.93;;;3.67;;
9716;SDS011;4897;43.570;27.832;2022-11-21T07:13:42;33.00;;;4.88;;
9716;SDS011;4897;43.570;27.832;2022-11-21T07:16:09;17.13;;;3.88;;
9716;SDS011;4897;43.570;27.832;2022-11-21T07:18:39;18.27;;;3.75;;
9716;SDS011;4897;43.570;27.832;2022-11-21T07:21:07;31.52;;;4.90;;
9716;SDS011;4897;43.570;27.832;2022-11-21T07:23:35;19.50;;;4.18;;
9716;SDS011;4897;43.570;27.832;2022-11-21T07:26:02;22.15;;;3.67;;
9716;SDS011;4897;43.570;27.832;2022-11-21T07:28:31;17.65;;;3.63;;
9716;SDS011;4897;43.570;27.832;2022-11-21T07:31:00;22.55;;;3.67;;
9716;SDS011;4897;43.570;27.832;2022-11-21T07:33:27;16.60;;;3.78;;
9716;SDS011;4897;43.570;27.832;2022-11-21T07:35:55;16.70;;;3.33;;
9716;SDS011;4897;43.570;27.832;2022-11-21T07:38:22;15.77;;;3.28;;
9716;SDS011;4897;43.570;27.832;2022-11-21T07:40:49;15.77;;;3.67;;
9716;SDS011;4897;43.570;27.832;2022-11-21T07:43:17;11.75;;;3.15;;
9716;SDS011;4897;43.570;27.832;2022-11-21T07:45:44;19.67;;;3.33;;
9716;SDS011;4897;43.570;27.832;2022-11-21T07:48:12;13.15;;;3.10;;
9716;SDS011;4897;43.570;27.832;2022-11-21T07:50:39;11.75;;;3.10;;
9716;SDS011;4897;43.570;27.832;2022-11-21T07:53:07;15.23;;;3.72;;
9716;SDS011;4897;43.570;27.832;2022-11-21T07:55:35;14.52;;;2.95;;
9716;SDS011;4897;43.570;27.832;2022-11-21T07:58:03;23.95;;;3.85;;
9716;SDS011;4897;43.570;27.832;2022-11-21T08:00:31;14.82;;;3.70;;
9716;SDS011;4897;43.570;27.832;2022-11-21T08:02:59;24.63;;;3.90;;
9716;SDS011;4897;43.570;27.832;2022-11-21T08:05:28;18.90;;;3.55;;
9716;SDS011;4897;43.570;27.832;2022-11-21T08:07:55;16.40;;;3.35;;
9716;SDS011;4897;43.570;27.832;2022-11-21T08:10:22;17.65;;;2.80;;
9716;SDS011;4897;43.570;27.832;2022-11-21T08:12:49;14.25;;;3.35;;
9716;SDS011;4897;43.570;27.832;2022-11-21T08:15:16;18.23;;;3.40;;
9716;SDS011;4897;43.570;27.832;2022-11-21T08:17:43;21.08;;;3.75;;
9716;SDS011;4897;43.570;27.832;2022-11-21T08:20:10;10.38;;;2.78;;
9716;SDS011;4897;43.570;27.832;2022-11-21T08:22:39;22.60;;;3.80;;
9716;SDS011;4897;43.570;27.832;2022-11-21T08:25:07;16.40;;;4.10;;
9716;SDS011;4897;43.570;27.832;2022-11-21T08:27:35;13.77;;;3.13;;
9716;SDS011;4897;43.570;27.832;2022-11-21T08:30:03;21.65;;;3.63;;
9716;SDS011;4897;43.570;27.832;2022-11-21T08:32:31;13.40;;;3.85;;
9716;SDS011;4897;43.570;27.832;2022-11-21T08:34:59;24.60;;;3.20;;
9716;SDS011;4897;43.570;27.832;2022-11-21T08:37:26;27.38;;;4.32;;
9716;SDS011;4897;43.570;27.832;2022-11-21T08:39:58;14.20;;;3.97;;
9716;SDS011;4897;43.570;27.832;2022-11-21T08:42:26;15.57;;;3.75;;
9716;SDS011;4897;43.570;27.832;2022-11-21T08:44:53;24.05;;;4.63;;
9716;SDS011;4897;43.570;27.832;2022-11-21T08:47:20;15.75;;;3.83;;
9716;SDS011;4897;43.570;27.832;2022-11-21T08:49:47;28.55;;;3.97;;
9716;SDS011;4897;43.570;27.832;2022-11-21T08:52:14;18.83;;;3.65;;
9716;SDS011;4897;43.570;27.832;2022-11-21T08:54:42;16.52;;;3.70;;
9716;SDS011;4897;43.570;27.832;2022-11-21T08:57:11;14.50;;;3.03;;
9716;SDS011;4897;43.570;27.832;2022-11-21T08:59:38;21.30;;;3.78;;
9716;SDS011;4897;43.570;27.832;2022-11-21T09:02:05;16.73;;;3.60;;
9716;SDS011;4897;43.570;27.832;2022-11-21T09:04:35;20.38;;;4.00;;
9716;SDS011;4897;43.570;27.832;2022-11-21T09:07:02;17.90;;;3.47;;
9716;SDS011;4897;43.570;27.832;2022-11-21T09:09:29;18.35;;;4.03;;
9716;SDS011;4897;43.570;27.832;2022-11-21T09:11:56;15.50;;;3.30;;
9716;SDS011;4897;43.570;27.832;2022-11-21T09:14:24;19.58;;;4.15;;
9716;SDS011;4897;43.570;27.832;2022-11-21T09:17:11;24.90;;;3.53;;
9716;SDS011;4897;43.570;27.832;2022-11-21T09:19:55;25.25;;;4.47;;
9716;SDS011;4897;43.570;27.832;2022-11-21T09:22:23;14.25;;;3.28;;
9716;SDS011;4897;43.570;27.832;2022-11-21T09:24:50;20.02;;;3.70;;
9716;SDS011;4897;43.570;27.832;2022-11-21T09:27:17;16.73;;;3.47;;
9716;SDS011;4897;43.570;27.832;2022-11-21T09:29:45;14.63;;;3.42;;
9716;SDS011;4897;43.570;27.832;2022-11-21T09:32:12;18.75;;;3.60;;
9716;SDS011;4897;43.570;27.832;2022-11-21T09:34:39;12.40;;;3.03;;
9716;SDS011;4897;43.570;27.832;2022-11-21T09:37:06;19.92;;;3.47;;
9716;SDS011;4897;43.570;27.832;2022-11-21T09:39:33;19.42;;;3.58;;
9716;SDS011;4897;43.570;27.832;2022-11-21T09:42:05;16.17;;;3.20;;
9716;SDS011;4897;43.570;27.832;2022-11-21T09:44:56;12.20;;;3.33;;
9716;SDS011;4897;43.570;27.832;2022-11-21T09:47:30;15.23;;;3.33;;
9716;SDS011;4897;43.570;27.832;2022-11-21T09:50:00;12.55;;;3.20;;
9716;SDS011;4897;43.570;27.832;2022-11-21T09:52:31;14.02;;;2.97;;
9716;SDS011;4897;43.570;27.832;2022-11-21T09:55:04;13.38;;;3.47;;
9716;SDS011;4897;43.570;27.832;2022-11-21T09:57:33;17.60;;;3.30;;
9716;SDS011;4897;43.570;27.832;2022-11-21T10:00:08;18.70;;;3.20;;
9716;SDS011;4897;43.570;27.832;2022-11-21T10:02:41;22.90;;;3.67;;
9716;SDS011;4897;43.570;27.832;2022-11-21T10:05:11;22.85;;;3.67;;
9716;SDS011;4897;43.570;27.832;2022-11-21T10:07:39;18.08;;;3.60;;
9716;SDS011;4897;43.570;27.832;2022-11-21T10:10:12;13.45;;;3.15;;
9716;SDS011;4897;43.570;27.832;2022-11-21T10:12:59;14.35;;;3.47;;
9716;SDS011;4897;43.570;27.832;2022-11-21T10:15:39;23.60;;;3.95;;
9716;SDS011;4897;43.570;27.832;2022-11-21T10:18:26;15.73;;;3.25;;
9716;SDS011;4897;43.570;27.832;2022-11-21T10:21:08;13.07;;;2.50;;
9716;SDS011;4897;43.570;27.832;2022-11-21T10:23:52;19.73;;;3.35;;
9716;SDS011;4897;43.570;27.832;2022-11-21T10:26:43;11.55;;;2.60;;
9716;SDS011;4897;43.570;27.832;2022-11-21T10:29:18;16.50;;;2.92;;
9716;SDS011;4897;43.570;27.832;2022-11-21T10:31:50;19.35;;;3.88;;
9716;SDS011;4897;43.570;27.832;2022-11-21T10:34:24;15.30;;;2.95;;
9716;SDS011;4897;43.570;27.832;2022-11-21T10:36:55;15.75;;;3.35;;
9716;SDS011;4897;43.570;27.832;2022-11-21T10:39:26;14.68;;;3.22;;
9716;SDS011;4897;43.570;27.832;2022-11-21T10:42:03;14.00;;;3.58;;
9716;SDS011;4897;43.570;27.832;2022-11-21T10:44:39;16.52;;;3.50;;
9716;SDS011;4897;43.570;27.832;2022-11-21T10:47:30;19.15;;;3.60;;
9716;SDS011;4897;43.570;27.832;2022-11-21T10:49:59;16.13;;;3.55;;
9716;SDS011;4897;43.570;27.832;2022-11-21T10:52:41;15.32;;;3.38;;
9716;SDS011;4897;43.570;27.832;2022-11-21T10:55:14;12.95;;;2.95;;
9716;SDS011;4897;43.570;27.832;2022-11-21T10:57:43;22.48;;;3.67;;
9716;SDS011;4897;43.570;27.832;2022-11-21T11:00:15;22.70;;;3.40;;
9716;SDS011;4897;43.570;27.832;2022-11-21T11:03:04;13.15;;;3.38;;
9716;SDS011;4897;43.570;27.832;2022-11-21T11:05:33;15.32;;;3.35;;
9716;SDS011;4897;43.570;27.832;2022-11-21T11:08:03;15.85;;;3.00;;
9716;SDS011;4897;43.570;27.832;2022-11-21T11:10:33;10.77;;;2.92;;
9716;SDS011;4897;43.570;27.832;2022-11-21T11:13:01;11.98;;;3.28;;
9716;SDS011;4897;43.570;27.832;2022-11-21T11:15:57;24.20;;;3.03;;
9716;SDS011;4897;43.570;27.832;2022-11-21T11:18:30;11.05;;;3.30;;
9716;SDS011;4897;43.570;27.832;2022-11-21T11:21:08;14.85;;;3.00;;
9716;SDS011;4897;43.570;27.832;2022-11-21T11:23:39;16.45;;;3.40;;
9716;SDS011;4897;43.570;27.832;2022-11-21T11:26:19;11.52;;;3.05;;
9716;SDS011;4897;43.570;27.832;2022-11-21T11:28:48;13.98;;;2.92;;
9716;SDS011;4897;43.570;27.832;2022-11-21T11:31:15;12.57;;;2.90;;
9716;SDS011;4897;43.570;27.832;2022-11-21T11:33:50;11.63;;;2.42;;
9716;SDS011;4897;43.570;27.832;2022-11-21T11:36:26;10.52;;;2.38;;
9716;SDS011;4897;43.570;27.832;2022-11-21T11:39:15;13.98;;;3.10;;
9716;SDS011;4897;43.570;27.832;2022-11-21T11:41:51;8.38;;;2.10;;
9716;SDS011;4897;43.570;27.832;2022-11-21T11:44:57;14.40;;;2.72;;
9716;SDS011;4897;43.570;27.832;2022-11-21T11:47:57;7.65;;;3.75;;
9716;SDS011;4897;43.570;27.832;2022-11-21T11:50:28;4.65;;;3.38;;
9716;SDS011;4897;43.570;27.832;2022-11-21T11:53:00;6.32;;;3.65;;
9716;SDS011;4897;43.570;27.832;2022-11-21T11:55:34;4.55;;;3.50;;
9716;SDS011;4897;43.570;27.832;2022-11-21T11:58:06;10.25;;;4.10;;
9716;SDS011;4897;43.570;27.832;2022-11-21T12:00:43;14.48;;;4.65;;
9716;SDS011;4897;43.570;27.832;2022-11-21T12:03:14;6.47;;;3.65;;
9716;SDS011;4897;43.570;27.832;2022-11-21T12:05:57;6.18;;;3.80;;
9716;SDS011;4897;43.570;27.832;2022-11-21T12:08:32;6.75;;;4.13;;
9716;SDS011;4897;43.570;27.832;2022-11-21T12:11:10;6.28;;;4.13;;
9716;SDS011;4897;43.570;27.832;2022-11-21T12:14:04;11.27;;;5.18;;
9716;SDS011;4897;43.570;27.832;2022-11-21T12:16:37;5.05;;;4.50;;
9716;SDS011;4897;43.570;27.832;2022-11-21T12:19:06;6.75;;;4.80;;
9716;SDS011;4897;43.570;27.832;2022-11-21T12:21:41;6.47;;;5.10;;
9716;SDS011;4897;43.570;27.832;2022-11-21T12:24:08;10.05;;;5.47;;
9716;SDS011;4897;43.570;27.832;2022-11-21T12:26:44;7.32;;;4.55;;
9716;SDS011;4897;43.570;27.832;2022-11-21T12:29:23;6.40;;;4.05;;
9716;SDS011;4897;43.570;27.832;2022-11-21T12:32:11;7.00;;;4.57;;
9716;SDS011;4897;43.570;27.832;2022-11-21T12:34:51;5.20;;;4.20;;
9716;SDS011;4897;43.570;27.832;2022-11-21T12:37:34;5.78;;;4.35;;
9716;SDS011;4897;43.570;27.832;2022-11-21T12:40:11;5.18;;;4.15;;
9716;SDS011;4897;43.570;27.832;2022-11-21T12:42:55;5.10;;;4.10;;
9716;SDS011;4897;43.570;27.832;2022-11-21T12:45:33;12.00;;;5.03;;
9716;SDS011;4897;43.570;27.832;2022-11-21T12:48:24;5.88;;;4.13;;
9716;SDS011;4897;43.570;27.832;2022-11-21T12:51:30;7.28;;;4.43;;
9716;SDS011;4897;43.570;27.832;2022-11-21T12:54:45;5.97;;;4.68;;
9716;SDS011;4897;43.570;27.832;2022-11-21T12:57:34;7.35;;;5.05;;
9716;SDS011;4897;43.570;27.832;2022-11-21T13:00:11;5.97;;;4.60;;
9716;SDS011;4897;43.570;27.832;2022-11-21T13:02:49;8.27;;;5.25;;
9716;SDS011;4897;43.570;27.832;2022-11-21T13:05:28;6.25;;;4.70;;
9716;SDS011;4897;43.570;27.832;2022-11-21T13:08:00;5.25;;;4.22;;
9716;SDS011;4897;43.570;27.832;2022-11-21T13:10:32;7.13;;;4.13;;
9716;SDS011;4897;43.570;27.832;2022-11-21T13:13:01;7.35;;;4.70;;
9716;SDS011;4897;43.570;27.832;2022-11-21T13:15:37;5.32;;;4.18;;
9716;SDS011;4897;43.570;27.832;2022-11-21T13:18:18;6.63;;;3.90;;
9716;SDS011;4897;43.570;27.832;2022-11-21T13:20:49;5.10;;;4.25;;
9716;SDS011;4897;43.570;27.832;2022-11-21T13:29:12;5.68;;;4.28;;
9716;SDS011;4897;43.570;27.832;2022-11-21T13:31:40;4.82;;;3.90;;
9716;SDS011;4897;43.570;27.832;2022-11-21T13:37:01;4.80;;;3.55;;
9716;SDS011;4897;43.570;27.832;2022-11-21T13:39:30;7.15;;;4.00;;
9716;SDS011;4897;43.570;27.832;2022-11-21T13:42:05;6.78;;;4.28;;
9716;SDS011;4897;43.570;27.832;2022-11-21T13:45:35;6.63;;;4.70;;
9716;SDS011;4897;43.570;27.832;2022-11-21T13:48:20;7.50;;;5.20;;
9716;SDS011;4897;43.570;27.832;2022-11-21T13:51:13;9.60;;;5.47;;
9716;SDS011;4897;43.570;27.832;2022-11-21T13:56:54;7.63;;;5.13;;
9716;SDS011;4897;43.570;27.832;2022-11-21T13:59:35;5.85;;;4.40;;
9716;SDS011;4897;43.570;27.832;2022-11-21T14:02:42;7.97;;;4.43;;
9716;SDS011;4897;43.570;27.832;2022-11-21T14:05:34;11.02;;;5.60;;
9716;SDS011;4897;43.570;27.832;2022-11-21T14:08:21;10.82;;;5.53;;
9716;SDS011;4897;43.570;27.832;2022-11-21T14:10:50;8.02;;;5.60;;
9716;SDS011;4897;43.570;27.832;2022-11-21T14:13:19;7.15;;;4.45;;
9716;SDS011;4897;43.570;27.832;2022-11-21T14:15:53;5.38;;;3.58;;
9716;SDS011;4897;43.570;27.832;2022-11-21T14:18:32;5.00;;;3.40;;
9716;SDS011;4897;43.570;27.832;2022-11-21T14:21:01;4.53;;;3.13;;
9716;SDS011;4897;43.570;27.832;2022-11-21T14:23:33;5.63;;;3.60;;
9716;SDS011;4897;43.570;27.832;2022-11-21T14:26:04;5.53;;;3.50;;
9716;SDS011;4897;43.570;27.832;2022-11-21T14:28:44;4.40;;;3.55;;
9716;SDS011;4897;43.570;27.832;2022-11-21T14:31:12;3.88;;;2.95;;
9716;SDS011;4897;43.570;27.832;2022-11-21T14:33:41;5.50;;;3.40;;
9716;SDS011;4897;43.570;27.832;2022-11-21T14:36:11;7.82;;;3.97;;
9716;SDS011;4897;43.570;27.832;2022-11-21T14:38:41;6.95;;;4.43;;
9716;SDS011;4897;43.570;27.832;2022-11-21T14:41:10;7.53;;;5.30;;
9716;SDS011;4897;43.570;27.832;2022-11-21T14:44:12;9.68;;;4.53;;
9716;SDS011;4897;43.570;27.832;2022-11-21T14:46:44;8.88;;;4.35;;
9716;SDS011;4897;43.570;27.832;2022-11-21T14:49:20;8.90;;;5.20;;
9716;SDS011;4897;43.570;27.832;2022-11-21T14:51:50;6.45;;;4.63;;
9716;SDS011;4897;43.570;27.832;2022-11-21T14:54:26;8.10;;;3.53;;
9716;SDS011;4897;43.570;27.832;2022-11-21T14:56:56;4.32;;;3.40;;
9716;SDS011;4897;43.570;27.832;2022-11-21T14:59:26;5.32;;;3.88;;
9716;SDS011;4897;43.570;27.832;2022-11-21T15:01:57;6.05;;;3.53;;
9716;SDS011;4897;43.570;27.832;2022-11-21T15:04:30;9.02;;;6.25;;
9716;SDS011;4897;43.570;27.832;2022-11-21T15:07:00;6.32;;;4.50;;
9716;SDS011;4897;43.570;27.832;2022-11-21T15:09:28;6.18;;;3.55;;
9716;SDS011;4897;43.570;27.832;2022-11-21T15:11:58;4.28;;;3.63;;
9716;SDS011;4897;43.570;27.832;2022-11-21T15:14:36;8.45;;;5.10;;
9716;SDS011;4897;43.570;27.832;2022-11-21T15:17:10;12.65;;;6.03;;
9716;SDS011;4897;43.570;27.832;2022-11-21T15:19:43;10.30;;;6.40;;
9716;SDS011;4897;43.570;27.832;2022-11-21T15:22:18;9.93;;;5.30;;
9716;SDS011;4897;43.570;27.832;2022-11-21T15:24:50;6.15;;;3.95;;
9716;SDS011;4897;43.570;27.832;2022-11-21T15:27:31;4.80;;;3.88;;
9716;SDS011;4897;43.570;27.832;2022-11-21T15:33:09;4.85;;;3.63;;
9716;SDS011;4897;43.570;27.832;2022-11-21T15:35:39;6.10;;;3.97;;
9716;SDS011;4897;43.570;27.832;2022-11-21T15:38:18;15.98;;;11.77;;
9716;SDS011;4897;43.570;27.832;2022-11-21T15:40:54;7.88;;;5.80;;